createdAt,value
2017-09-14T00:00:09.221Z,64.53
2017-09-14T00:00:49.661Z,64.92
2017-09-14T00:01:30.111Z,64.92
2017-09-14T00:02:10.555Z,64.82
2017-09-14T00:02:51.002Z,65.11
2017-09-14T00:03:31.450Z,64.98
2017-09-14T00:04:11.897Z,65.2
2017-09-14T00:04:52.344Z,64.92
2017-09-14T00:05:32.790Z,65.5
2017-09-14T00:06:13.237Z,65.11
2017-09-14T00:06:53.685Z,65.3
2017-09-14T00:07:34.134Z,65.17
2017-09-14T00:08:14.574Z,65.17
2017-09-14T00:08:55.020Z,65.11
2017-09-14T00:09:35.464Z,65.2
2017-09-14T00:10:15.907Z,65.08
2017-09-14T00:10:56.356Z,64.98
2017-09-14T00:11:36.802Z,65.01
2017-09-14T00:12:17.263Z,64.82
2017-09-14T00:12:57.707Z,65.3
2017-09-14T00:13:38.153Z,65.27
2017-09-14T00:14:18.598Z,65.4
2017-09-14T00:14:59.039Z,65.5
2017-09-14T00:15:39.485Z,65.27
2017-09-14T00:16:19.931Z,65.3
2017-09-14T00:17:00.380Z,65.56
2017-09-14T00:17:40.829Z,65.66
2017-09-14T00:18:21.276Z,65.66
2017-09-14T00:19:01.738Z,65.69
2017-09-14T00:19:42.156Z,65.47
2017-09-14T00:20:22.602Z,65.4
2017-09-14T00:21:03.046Z,65.56
2017-09-14T00:21:43.496Z,65.78
2017-09-14T00:22:23.941Z,65.66
2017-09-14T00:23:04.386Z,65.47
2017-09-14T00:23:44.841Z,65.4
2017-09-14T00:24:25.283Z,65.59
2017-09-14T00:25:05.734Z,65.4
2017-09-14T00:25:46.188Z,65.3
2017-09-14T00:26:26.637Z,65.37
2017-09-14T00:27:07.085Z,65.59
2017-09-14T00:27:47.539Z,65.56
2017-09-14T00:28:27.990Z,65.88
2017-09-14T00:29:08.450Z,65.88
2017-09-14T00:29:48.915Z,65.98
2017-09-14T00:30:29.351Z,65.95
2017-09-14T00:31:09.794Z,65.98
2017-09-14T00:31:50.245Z,65.95
2017-09-14T00:32:30.688Z,66.08
2017-09-14T00:33:11.134Z,65.95
2017-09-14T00:33:51.578Z,65.88
2017-09-14T00:34:32.026Z,65.88
2017-09-14T00:35:12.475Z,65.98
2017-09-14T00:35:52.920Z,65.98
2017-09-14T00:36:33.364Z,66.08
2017-09-14T00:37:13.812Z,66.14
2017-09-14T00:37:54.275Z,65.75
2017-09-14T00:38:34.716Z,65.98
2017-09-14T00:39:15.168Z,65.98
2017-09-14T00:39:55.612Z,65.75
2017-09-14T00:40:36.060Z,65.78
2017-09-14T00:41:16.511Z,65.78
2017-09-14T00:41:56.957Z,65.95
2017-09-14T00:42:37.406Z,65.88
2017-09-14T00:43:17.854Z,65.98
2017-09-14T00:43:58.295Z,65.95
2017-09-14T00:44:38.744Z,65.59
2017-09-14T00:45:19.192Z,65.75
2017-09-14T00:45:59.641Z,65.5
2017-09-14T00:46:40.087Z,65.78
2017-09-14T00:47:20.533Z,65.78
2017-09-14T00:48:00.987Z,65.78
2017-09-14T00:48:41.440Z,65.88
2017-09-14T00:49:21.885Z,65.95
2017-09-14T00:50:02.339Z,65.78
2017-09-14T00:50:42.786Z,65.78
2017-09-14T00:51:23.232Z,65.88
2017-09-14T00:52:03.675Z,65.78
2017-09-14T00:52:44.140Z,66.17
2017-09-14T00:53:24.558Z,65.95
2017-09-14T00:54:04.996Z,66.52
2017-09-14T00:54:45.444Z,65.95
2017-09-14T00:55:25.891Z,65.88
2017-09-14T00:56:06.337Z,66.43
2017-09-14T00:56:46.789Z,66.24
2017-09-14T00:57:27.247Z,66.24
2017-09-14T00:58:07.696Z,66.33
2017-09-14T00:58:48.136Z,66.46
2017-09-14T00:59:28.584Z,66.52
2017-09-14T01:00:09.031Z,66.43
2017-09-14T01:00:49.473Z,66.27
2017-09-14T01:01:29.920Z,66.14
2017-09-14T01:02:10.369Z,66.17
2017-09-14T01:02:50.825Z,66.17
2017-09-14T01:03:31.278Z,66.36
2017-09-14T01:04:11.733Z,65.95
2017-09-14T01:04:52.167Z,66.14
2017-09-14T01:05:32.622Z,66.24
2017-09-14T01:06:13.059Z,66.27
2017-09-14T01:06:53.501Z,66.24
2017-09-14T01:07:33.958Z,66.24
2017-09-14T01:08:14.404Z,66.08
2017-09-14T01:08:54.845Z,66.62
2017-09-14T01:09:35.297Z,66.43
2017-09-14T01:10:15.742Z,66.43
2017-09-14T01:10:56.194Z,66.43
2017-09-14T01:11:36.640Z,66.52
2017-09-14T01:12:17.082Z,66.24
2017-09-14T01:12:57.526Z,66.43
2017-09-14T01:13:37.962Z,66.43
2017-09-14T01:14:18.412Z,66.52
2017-09-14T01:14:58.860Z,66.24
2017-09-14T01:15:39.322Z,66.52
2017-09-14T01:16:19.762Z,66.52
2017-09-14T01:17:00.206Z,66.17
2017-09-14T01:17:40.653Z,66.52
2017-09-14T01:18:21.097Z,66.72
2017-09-14T02:25:10.195Z,67.49
2017-09-14T02:25:50.639Z,67.4
2017-09-14T02:26:31.092Z,67.3
2017-09-14T02:27:11.529Z,67.58
2017-09-14T02:27:51.984Z,67.2
2017-09-14T02:28:32.428Z,67.49
2017-09-14T02:29:12.876Z,67.4
2017-09-14T02:29:53.318Z,67.49
2017-09-14T02:30:33.763Z,67.2
2017-09-14T02:31:14.212Z,67.4
2017-09-14T02:31:54.660Z,67.2
2017-09-14T02:32:35.112Z,67.49
2017-09-14T02:33:15.547Z,67.49
2017-09-14T02:33:55.983Z,67.88
2017-09-14T02:34:36.427Z,67.88
2017-09-14T02:35:16.876Z,67.88
2017-09-14T02:35:57.321Z,67.88
2017-09-14T02:36:37.771Z,67.58
2017-09-14T02:37:18.220Z,67.88
2017-09-14T02:37:58.664Z,67.58
2017-09-14T02:38:39.113Z,67.68
2017-09-14T02:39:19.561Z,67.68
2017-09-14T02:40:00.023Z,67.88
2017-09-14T02:40:40.466Z,67.68
2017-09-14T02:41:20.899Z,67.68
2017-09-14T02:42:01.346Z,67.78
2017-09-14T02:42:41.816Z,67.58
2017-09-14T02:43:22.246Z,67.78
2017-09-14T02:44:02.686Z,67.58
2017-09-14T02:44:43.137Z,67.88
2017-09-14T02:45:23.581Z,67.88
2017-09-14T02:46:04.030Z,67.88
2017-09-14T02:46:44.471Z,67.68
2017-09-14T02:47:24.924Z,68.16
2017-09-14T02:48:05.374Z,67.97
2017-09-14T02:48:45.822Z,67.88
2017-09-14T02:49:26.268Z,67.88
2017-09-14T02:50:06.718Z,67.97
2017-09-14T02:50:47.164Z,67.88
2017-09-14T02:51:27.631Z,67.88
2017-09-14T02:52:08.075Z,67.88
2017-09-14T02:52:48.526Z,67.88
2017-09-14T02:53:28.984Z,67.97
2017-09-14T02:54:09.407Z,67.97
2017-09-14T02:54:49.857Z,67.88
2017-09-14T02:55:30.300Z,67.78
2017-09-14T02:56:10.751Z,67.88
2017-09-14T02:56:51.196Z,67.88
2017-09-14T02:57:31.643Z,67.88
2017-09-14T02:58:12.084Z,67.88
2017-09-14T02:58:52.530Z,67.97
2017-09-14T02:59:32.987Z,67.97
2017-09-14T03:00:13.425Z,68.07
2017-09-14T03:00:53.872Z,67.68
2017-09-14T03:01:34.318Z,67.97
2017-09-14T03:02:14.763Z,67.97
2017-09-14T03:02:55.212Z,67.97
2017-09-14T03:03:35.662Z,67.68
2017-09-14T03:04:16.105Z,67.78
2017-09-14T03:04:56.544Z,67.78
2017-09-14T03:05:36.998Z,67.97
2017-09-14T03:06:17.438Z,67.97
2017-09-14T03:06:57.885Z,67.78
2017-09-14T03:07:38.343Z,67.88
2017-09-14T03:08:18.786Z,67.68
2017-09-14T03:08:59.236Z,67.78
2017-09-14T03:09:39.678Z,67.68
2017-09-14T03:10:20.130Z,67.78
2017-09-14T03:11:00.577Z,67.78
2017-09-14T03:11:41.039Z,67.78
2017-09-14T03:12:21.491Z,67.58
2017-09-14T03:13:01.935Z,67.88
2017-09-14T03:13:42.372Z,67.88
2017-09-14T03:14:22.817Z,67.88
2017-09-14T03:15:03.270Z,67.88
2017-09-14T03:15:43.714Z,67.88
2017-09-14T03:16:24.165Z,67.88
2017-09-14T03:17:04.615Z,67.88
2017-09-14T03:17:45.065Z,67.68
2017-09-14T03:18:25.517Z,67.97
2017-09-14T03:19:05.959Z,67.68
2017-09-14T03:19:46.403Z,67.78
2017-09-14T03:20:26.846Z,67.78
2017-09-14T03:21:07.293Z,67.78
2017-09-14T03:21:47.736Z,67.58
2017-09-14T03:22:28.186Z,68.07
2017-09-14T03:23:08.654Z,67.78
2017-09-14T03:23:49.095Z,67.58
2017-09-14T03:24:29.545Z,67.78
2017-09-14T03:25:09.991Z,67.68
2017-09-14T03:25:50.435Z,67.88
2017-09-14T03:26:30.886Z,68.26
2017-09-14T03:27:11.338Z,67.68
2017-09-14T03:27:51.785Z,68.26
2017-09-14T03:28:32.250Z,68.26
2017-09-14T03:29:12.683Z,68.16
2017-09-14T03:29:53.128Z,68.45
2017-09-14T03:30:33.572Z,68.07
2017-09-14T03:31:14.031Z,68.07
2017-09-14T03:31:54.478Z,68.35
2017-09-14T03:32:34.916Z,68.26
2017-09-14T03:33:15.366Z,68.35
2017-09-14T03:33:55.821Z,68.35
2017-09-14T03:34:36.267Z,68.45
2017-09-14T03:35:16.736Z,68.35
2017-09-14T03:35:57.178Z,68.45
2017-09-14T03:36:37.620Z,68.07
2017-09-14T03:37:18.069Z,68.35
2017-09-14T03:37:58.503Z,68.35
2017-09-14T03:38:38.949Z,68.26
2017-09-14T03:39:19.396Z,68.35
2017-09-14T03:39:59.850Z,68.07
2017-09-14T03:40:40.292Z,68.45
2017-09-14T03:41:20.742Z,68.45
2017-09-14T03:42:01.191Z,68.26
2017-09-14T03:42:41.639Z,68.35
2017-09-14T03:43:22.099Z,68.26
2017-09-14T03:44:02.541Z,68.07
2017-09-14T03:44:42.986Z,68.45
2017-09-14T03:45:23.433Z,68.35
2017-09-14T03:46:03.881Z,68.26
2017-09-14T03:46:44.338Z,68.07
2017-09-14T03:47:24.755Z,68.07
2017-09-14T03:48:05.204Z,68.07
2017-09-14T03:48:45.648Z,68.07
2017-09-14T03:49:26.091Z,67.97
2017-09-14T03:50:06.552Z,68.07
2017-09-14T03:50:46.998Z,68.07
2017-09-14T03:51:27.438Z,68.07
2017-09-14T03:52:07.878Z,68.07
2017-09-14T03:52:48.323Z,68.07
2017-09-14T03:53:28.773Z,68.07
2017-09-14T03:54:09.227Z,68.16
2017-09-14T03:54:49.675Z,67.88
2017-09-14T03:55:30.113Z,68.26
2017-09-14T03:56:10.573Z,68.35
2017-09-14T03:56:51.021Z,68.16
2017-09-14T03:57:31.476Z,67.88
2017-09-14T03:58:11.913Z,68.26
2017-09-14T03:58:52.355Z,68.35
2017-09-14T03:59:32.809Z,68.26
2017-09-14T04:00:13.261Z,68.07
2017-09-14T04:00:53.710Z,68.26
2017-09-14T04:01:34.159Z,68.16
2017-09-14T04:02:14.624Z,68.45
2017-09-14T04:02:55.071Z,68.45
2017-09-14T04:03:35.512Z,68.26
2017-09-14T04:04:15.956Z,68.35
2017-09-14T04:04:56.417Z,68.26
2017-09-14T04:05:36.839Z,68.26
2017-09-14T04:06:17.287Z,68.35
2017-09-14T04:06:57.734Z,68.35
2017-09-14T04:07:38.182Z,68.16
2017-09-14T04:08:18.631Z,67.88
2017-09-14T04:08:59.082Z,68.26
2017-09-14T04:09:39.533Z,68.26
2017-09-14T04:10:19.961Z,68.1
2017-09-14T04:11:00.399Z,68.07
2017-09-14T04:11:40.856Z,68.16
2017-09-14T04:12:21.304Z,68.26
2017-09-14T04:13:01.745Z,68.1
2017-09-14T04:13:42.193Z,68.19
2017-09-14T04:14:22.685Z,68.07
2017-09-14T04:15:03.090Z,68.1
2017-09-14T04:15:43.534Z,68.1
2017-09-14T04:16:23.992Z,68.01
2017-09-14T04:17:04.423Z,68.29
2017-09-14T04:17:44.875Z,68.49
2017-09-14T04:18:25.317Z,68.39
2017-09-14T04:19:05.761Z,67.62
2017-09-14T04:19:46.214Z,67.71
2017-09-14T04:20:26.659Z,67.71
2017-09-14T04:21:07.096Z,67.62
2017-09-14T04:21:47.535Z,67.91
2017-09-14T04:22:27.989Z,67.81
2017-09-14T04:23:08.435Z,67.91
2017-09-14T04:23:48.880Z,67.81
2017-09-14T04:24:29.327Z,67.71
2017-09-14T04:25:09.769Z,67.81
2017-09-14T04:25:50.224Z,67.71
2017-09-14T04:26:30.670Z,67.81
2017-09-14T04:27:11.119Z,67.71
2017-09-14T04:27:51.561Z,67.71
2017-09-14T04:28:32.016Z,67.62
2017-09-14T04:29:12.463Z,68.19
2017-09-14T04:29:52.903Z,67.81
2017-09-14T04:30:33.351Z,67.91
2017-09-14T04:31:13.812Z,67.71
2017-09-14T04:31:54.258Z,67.81
2017-09-14T04:32:34.720Z,67.91
2017-09-14T04:33:15.169Z,67.81
2017-09-14T04:33:55.616Z,67.91
2017-09-14T04:35:53.277Z,67.91
2017-09-14T04:36:33.716Z,68.01
2017-09-14T04:37:14.164Z,67.81
2017-09-14T04:37:54.623Z,67.91
2017-09-14T04:38:35.085Z,68.01
2017-09-14T04:39:15.528Z,67.91
2017-09-14T04:39:55.970Z,67.91
2017-09-14T04:40:36.416Z,67.81
2017-09-14T04:41:16.874Z,67.71
2017-09-14T04:41:57.323Z,68.01
2017-09-14T04:42:37.759Z,67.62
2017-09-14T04:43:18.204Z,67.91
2017-09-14T04:43:58.679Z,68.01
2017-09-14T04:44:39.102Z,67.91
2017-09-14T04:45:19.548Z,67.91
2017-09-14T04:46:00.518Z,68.01
2017-09-14T04:46:40.931Z,68.1
2017-09-14T04:47:21.380Z,67.91
2017-09-14T04:48:01.808Z,67.91
2017-09-14T04:48:42.254Z,67.71
2017-09-14T04:49:22.703Z,67.71
2017-09-14T04:50:03.160Z,67.81
2017-09-14T04:50:43.602Z,67.43
2017-09-14T04:51:24.054Z,67.81
2017-09-14T04:52:04.473Z,67.71
2017-09-14T04:52:44.914Z,67.71
2017-09-14T04:53:25.361Z,67.91
2017-09-14T04:54:05.816Z,68.01
2017-09-14T04:54:46.262Z,67.71
2017-09-14T04:55:26.710Z,67.71
2017-09-14T04:56:07.166Z,67.71
2017-09-14T04:56:47.610Z,68.01
2017-09-14T04:57:28.055Z,67.62
2017-09-14T04:58:08.501Z,67.71
2017-09-14T04:58:48.926Z,67.81
2017-09-14T04:59:29.396Z,68.01
2017-09-14T05:00:09.830Z,68.01
2017-09-14T05:00:50.270Z,68.1
2017-09-14T05:01:30.714Z,68.01
2017-09-14T05:02:11.185Z,68.01
2017-09-14T05:02:51.622Z,68.01
2017-09-14T05:03:32.067Z,68.01
2017-09-14T05:04:12.505Z,68.01
2017-09-14T05:04:52.947Z,67.81
2017-09-14T05:05:33.395Z,67.71
2017-09-14T05:06:13.845Z,67.71
2017-09-14T05:06:54.286Z,67.71
2017-09-14T05:07:34.740Z,67.91
2017-09-14T05:08:15.182Z,67.62
2017-09-14T05:08:55.633Z,68.01
2017-09-14T05:09:36.080Z,67.81
2017-09-14T05:10:16.526Z,67.81
2017-09-14T05:10:56.973Z,67.91
2017-09-14T05:11:37.413Z,67.81
2017-09-14T05:12:17.858Z,67.71
2017-09-14T05:12:58.307Z,67.81
2017-09-14T05:13:38.756Z,67.71
2017-09-14T05:14:19.210Z,68.01
2017-09-14T05:15:00.197Z,67.81
2017-09-14T05:15:40.641Z,68.01
2017-09-14T05:16:21.087Z,68.01
2017-09-14T05:17:01.536Z,68.01
2017-09-14T05:18:59.193Z,67.91
2017-09-14T05:19:39.641Z,67.91
2017-09-14T05:20:20.089Z,67.91
2017-09-14T05:21:00.537Z,67.91
2017-09-14T05:21:40.985Z,68.19
2017-09-14T05:22:21.432Z,67.52
2017-09-14T05:23:01.882Z,67.62
2017-09-14T05:23:42.326Z,67.81
2017-09-14T05:24:22.774Z,67.71
2017-09-14T05:25:03.222Z,67.71
2017-09-14T05:25:43.668Z,67.81
2017-09-14T05:26:24.112Z,67.81
2017-09-14T05:27:04.572Z,67.91
2017-09-14T05:27:45.022Z,68.01
2017-09-14T05:28:25.470Z,67.43
2017-09-14T05:29:05.912Z,67.33
2017-09-14T05:29:46.380Z,67.52
2017-09-14T05:30:26.826Z,67.33
2017-09-14T05:31:07.268Z,67.33
2017-09-14T05:31:47.714Z,67.62
2017-09-14T05:32:28.161Z,67.52
2017-09-14T05:33:08.610Z,67.62
2017-09-14T05:33:49.060Z,67.33
2017-09-14T05:34:29.512Z,67.62
2017-09-14T05:35:09.953Z,67.52
2017-09-14T05:35:50.421Z,67.71
2017-09-14T05:36:30.838Z,67.23
2017-09-14T05:37:11.280Z,67.23
2017-09-14T05:37:51.730Z,67.43
2017-09-14T05:38:32.171Z,67.62
2017-09-14T05:39:12.617Z,67.62
2017-09-14T05:39:53.071Z,67.23
2017-09-14T05:40:33.513Z,67.23
2017-09-14T05:41:13.963Z,67.33
2017-09-14T05:41:54.411Z,67.33
2017-09-14T05:42:34.861Z,67.23
2017-09-14T05:43:15.312Z,67.43
2017-09-14T05:43:55.766Z,67.23
2017-09-14T05:44:36.220Z,67.43
2017-09-14T05:45:16.669Z,67.43
2017-09-14T05:45:57.117Z,67.23
2017-09-14T05:46:37.562Z,67.33
2017-09-14T05:47:18.012Z,67.33
2017-09-14T05:47:58.494Z,67.43
2017-09-14T05:48:38.932Z,67.23
2017-09-14T05:49:19.373Z,67.23
2017-09-14T05:49:59.824Z,67.23
2017-09-14T05:50:40.270Z,67.33
2017-09-14T05:51:20.708Z,67.33
2017-09-14T05:52:01.144Z,67.71
2017-09-14T05:52:41.587Z,67.71
2017-09-14T05:53:22.034Z,67.71
2017-09-14T05:54:02.482Z,67.71
2017-09-14T05:54:42.931Z,67.71
2017-09-14T05:55:23.402Z,67.33
2017-09-14T05:56:03.850Z,67.43
2017-09-14T05:56:44.290Z,67.33
2017-09-14T05:57:24.754Z,67.23
2017-09-14T05:58:05.201Z,67.33
2017-09-14T05:58:45.642Z,67.62
2017-09-14T05:59:26.091Z,67.43
2017-09-14T06:00:06.543Z,67.23
2017-09-14T06:00:47.154Z,67.33
2017-09-14T06:01:27.472Z,67.23
2017-09-14T06:02:07.920Z,67.43
2017-09-14T06:02:48.377Z,67.43
2017-09-14T06:03:28.818Z,67.23
2017-09-14T06:04:09.266Z,67.23
2017-09-14T06:04:49.714Z,67.43
2017-09-14T06:05:30.166Z,67.71
2017-09-14T06:06:10.610Z,67.62
2017-09-14T06:06:51.059Z,67.62
2017-09-14T06:07:31.508Z,67.33
2017-09-14T06:08:11.954Z,67.62
2017-09-14T06:08:52.405Z,67.33
2017-09-14T06:09:32.852Z,67.33
2017-09-14T06:10:13.305Z,67.52
2017-09-14T06:10:53.751Z,67.43
2017-09-14T06:11:34.197Z,67.52
2017-09-14T06:12:14.646Z,67.33
2017-09-14T06:12:55.096Z,67.43
2017-09-14T06:13:35.536Z,67.23
2017-09-14T06:14:16.027Z,67.62
2017-09-14T06:14:56.470Z,67.23
2017-09-14T06:15:37.066Z,67.43
2017-09-14T06:16:17.570Z,67.52
2017-09-14T06:16:58.023Z,67.43
2017-09-14T06:17:38.478Z,67.43
2017-09-14T06:18:18.921Z,67.23
2017-09-14T06:18:59.363Z,67.52
2017-09-14T06:19:39.831Z,67.33
2017-09-14T06:20:20.268Z,67.81
2017-09-14T06:21:00.702Z,67.43
2017-09-14T06:21:41.157Z,67.52
2017-09-14T06:23:28.674Z,67.33
2017-09-14T06:24:09.109Z,67.91
2017-09-14T06:24:49.613Z,67.43
2017-09-14T06:25:30.061Z,67.33
2017-09-14T06:26:10.583Z,67.33
2017-09-14T06:26:51.030Z,67.52
2017-09-14T06:27:31.480Z,67.43
2017-09-14T06:28:11.930Z,67.33
2017-09-14T06:28:52.381Z,67.23
2017-09-14T06:29:32.824Z,67.71
2017-09-14T06:30:13.273Z,67.71
2017-09-14T06:30:53.724Z,67.52
2017-09-14T06:31:34.171Z,67.52
2017-09-14T06:32:14.611Z,67.33
2017-09-14T06:32:55.051Z,67.23
2017-09-14T06:33:35.497Z,67.23
2017-09-14T06:34:15.943Z,67.33
2017-09-14T06:34:56.396Z,67.23
2017-09-14T06:35:36.849Z,67.23
2017-09-14T06:36:17.270Z,67.71
2017-09-14T06:36:57.723Z,67.23
2017-09-14T06:37:38.171Z,67.52
2017-09-14T06:38:18.618Z,67.33
2017-09-14T06:38:59.067Z,67.23
2017-09-14T06:39:39.514Z,67.23
2017-09-14T06:40:19.961Z,67.52
2017-09-14T06:41:00.404Z,67.33
2017-09-14T06:41:40.854Z,67.23
2017-09-14T06:42:21.286Z,67.33
2017-09-14T06:43:01.734Z,67.52
2017-09-14T06:43:42.182Z,67.23
2017-09-14T06:44:22.629Z,67.43
2017-09-14T06:45:03.077Z,67.23
2017-09-14T06:45:43.526Z,67.43
2017-09-14T06:46:24.001Z,67.52
2017-09-14T06:47:04.449Z,67.43
2017-09-14T06:47:44.891Z,67.62
2017-09-14T06:48:25.342Z,67.43
2017-09-14T06:49:05.814Z,67.43
2017-09-14T06:49:46.239Z,67.71
2017-09-14T06:50:26.683Z,67.33
2017-09-14T06:51:07.124Z,67.62
2017-09-14T06:51:47.563Z,67.14
2017-09-14T06:52:28.012Z,67.43
2017-09-14T06:53:08.459Z,67.62
2017-09-14T06:53:48.909Z,67.62
2017-09-14T06:54:29.351Z,67.62
2017-09-14T06:55:09.820Z,67.04
2017-09-14T06:55:50.269Z,67.33
2017-09-14T06:56:30.722Z,67.62
2017-09-14T06:57:11.173Z,67.33
2017-09-14T06:57:51.616Z,67.62
2017-09-14T06:58:32.064Z,67.43
2017-09-14T06:59:12.502Z,66.94
2017-09-14T06:59:52.950Z,67.04
2017-09-14T07:00:33.391Z,67.23
2017-09-14T07:01:13.821Z,67.04
2017-09-14T07:01:54.271Z,67.04
2017-09-14T07:02:34.719Z,67.04
2017-09-14T07:03:15.165Z,67.04
2017-09-14T07:03:55.598Z,67.04
2017-09-14T07:04:36.052Z,66.94
2017-09-14T07:05:16.503Z,67.04
2017-09-14T07:05:56.941Z,66.94
2017-09-14T07:06:37.384Z,67.14
2017-09-14T07:07:17.831Z,66.94
2017-09-14T07:07:58.279Z,66.94
2017-09-14T07:08:38.721Z,66.94
2017-09-14T07:09:19.169Z,66.94
2017-09-14T07:09:59.642Z,66.85
2017-09-14T07:10:40.041Z,67.04
2017-09-14T07:11:20.486Z,66.85
2017-09-14T07:12:00.955Z,66.94
2017-09-14T07:12:41.376Z,66.85
2017-09-14T07:13:21.832Z,66.94
2017-09-14T07:14:02.286Z,66.94
2017-09-14T07:14:42.719Z,66.94
2017-09-14T07:15:23.163Z,66.94
2017-09-14T07:16:03.603Z,66.85
2017-09-14T07:16:44.049Z,66.94
2017-09-14T07:17:24.488Z,67.04
2017-09-14T07:18:04.933Z,67.14
2017-09-14T07:18:45.396Z,67.33
2017-09-14T07:19:25.824Z,67.04
2017-09-14T07:20:06.295Z,67.33
2017-09-14T07:20:46.738Z,67.33
2017-09-14T07:21:27.180Z,67.23
2017-09-14T07:22:07.636Z,67.23
2017-09-14T07:22:48.084Z,66.94
2017-09-14T07:23:28.525Z,66.85
2017-09-14T07:24:08.969Z,67.04
2017-09-14T07:24:49.397Z,66.85
2017-09-14T07:25:30.093Z,67.04
2017-09-14T07:26:10.517Z,66.85
2017-09-14T07:26:50.972Z,66.56
2017-09-14T07:27:31.418Z,66.56
2017-09-14T07:28:11.867Z,66.56
2017-09-14T07:28:52.312Z,66.85
2017-09-14T07:29:32.755Z,66.85
2017-09-14T07:30:13.201Z,66.56
2017-09-14T07:30:53.654Z,66.66
2017-09-14T07:31:34.103Z,66.66
2017-09-14T07:32:14.554Z,66.66
2017-09-14T07:32:55.006Z,66.66
2017-09-14T07:33:35.452Z,66.66
2017-09-14T07:34:15.900Z,66.66
2017-09-14T07:34:56.350Z,66.66
2017-09-14T07:35:36.781Z,66.75
2017-09-14T07:36:17.243Z,66.85
2017-09-14T07:36:57.693Z,66.75
2017-09-14T07:37:38.141Z,66.85
2017-09-14T07:38:18.591Z,66.94
2017-09-14T07:38:59.038Z,66.85
2017-09-14T07:39:39.486Z,66.85
2017-09-14T07:40:19.931Z,66.85
2017-09-14T07:41:00.378Z,66.85
2017-09-14T07:41:40.824Z,66.75
2017-09-14T07:42:21.264Z,66.75
2017-09-14T07:43:01.713Z,66.75
2017-09-14T07:43:42.159Z,66.85
2017-09-14T07:44:22.613Z,66.85
2017-09-14T07:45:03.075Z,66.75
2017-09-14T07:45:43.525Z,66.75
2017-09-14T07:46:23.969Z,66.85
2017-09-14T07:47:04.427Z,66.85
2017-09-14T07:47:44.868Z,66.85
2017-09-14T07:48:25.318Z,66.85
2017-09-14T07:49:05.765Z,66.94
2017-09-14T07:49:46.225Z,66.75
2017-09-14T07:50:26.660Z,66.75
2017-09-14T07:51:07.110Z,66.75
2017-09-14T07:51:47.552Z,66.75
2017-09-14T07:52:27.996Z,66.85
2017-09-14T07:53:08.441Z,66.75
2017-09-14T07:53:48.891Z,66.66
2017-09-14T07:54:29.336Z,66.66
2017-09-14T07:55:09.786Z,66.75
2017-09-14T07:55:50.231Z,66.66
2017-09-14T07:56:30.682Z,66.66
2017-09-14T07:57:11.131Z,66.56
2017-09-14T07:57:51.576Z,66.66
2017-09-14T07:58:32.015Z,66.46
2017-09-14T07:59:12.464Z,66.56
2017-09-14T07:59:52.920Z,66.46
2017-09-14T08:00:33.386Z,66.46
2017-09-14T08:01:13.835Z,66.56
2017-09-14T08:01:54.282Z,66.56
2017-09-14T08:02:34.730Z,66.75
2017-09-14T08:03:15.180Z,66.75
2017-09-14T08:03:55.634Z,66.66
2017-09-14T08:04:36.077Z,66.66
2017-09-14T08:05:16.525Z,66.66
2017-09-14T08:05:56.979Z,66.66
2017-09-14T08:06:37.423Z,66.75
2017-09-14T08:07:17.886Z,66.85
2017-09-14T08:07:58.327Z,66.75
2017-09-14T08:08:38.774Z,66.66
2017-09-14T08:09:19.221Z,66.75
2017-09-14T08:09:59.701Z,66.85
2017-09-14T08:10:40.098Z,66.85
2017-09-14T08:11:20.543Z,66.36
2017-09-14T08:12:00.975Z,66.75
2017-09-14T08:12:41.424Z,66.85
2017-09-14T08:13:21.874Z,66.85
2017-09-14T08:14:02.327Z,66.75
2017-09-14T08:14:42.772Z,66.94
2017-09-14T08:15:23.222Z,66.94
2017-09-14T08:16:03.669Z,66.75
2017-09-14T08:16:44.119Z,66.85
2017-09-14T08:17:24.571Z,66.94
2017-09-14T08:18:05.024Z,66.85
2017-09-14T08:18:45.471Z,66.85
2017-09-14T08:19:25.936Z,66.75
2017-09-14T08:20:06.387Z,66.85
2017-09-14T08:20:46.838Z,66.85
2017-09-14T08:21:27.290Z,66.85
2017-09-14T08:22:07.745Z,66.66
2017-09-14T08:22:48.191Z,66.75
2017-09-14T08:23:28.640Z,66.75
2017-09-14T08:24:09.089Z,66.75
2017-09-14T08:24:49.527Z,66.66
2017-09-14T08:25:29.977Z,66.66
2017-09-14T08:26:10.425Z,66.66
2017-09-14T08:26:50.874Z,66.66
2017-09-14T08:27:31.316Z,66.66
2017-09-14T08:28:11.775Z,66.85
2017-09-14T08:28:52.240Z,66.66
2017-09-14T08:29:32.667Z,66.75
2017-09-14T08:30:13.123Z,66.85
2017-09-14T08:30:53.574Z,66.85
2017-09-14T08:31:34.020Z,66.75
2017-09-14T08:32:14.466Z,66.75
2017-09-14T08:32:54.915Z,66.66
2017-09-14T08:33:35.360Z,66.56
2017-09-14T08:34:15.809Z,66.94
2017-09-14T08:34:56.260Z,66.85
2017-09-14T08:35:36.703Z,66.75
2017-09-14T08:36:17.153Z,66.75
2017-09-14T08:36:57.599Z,66.66
2017-09-14T08:37:38.055Z,66.56
2017-09-14T08:38:18.499Z,66.46
2017-09-14T08:38:58.952Z,66.75
2017-09-14T08:39:39.391Z,66.46
2017-09-14T08:40:19.845Z,66.27
2017-09-14T08:41:00.296Z,66.46
2017-09-14T08:41:40.745Z,66.46
2017-09-14T08:42:21.207Z,66.36
2017-09-14T08:43:01.642Z,66.46
2017-09-14T08:43:42.090Z,66.46
2017-09-14T08:44:22.536Z,66.36
2017-09-14T08:45:02.978Z,66.66
2017-09-14T08:45:43.421Z,66.17
2017-09-14T08:46:23.870Z,66.46
2017-09-14T08:47:04.318Z,66.36
2017-09-14T08:47:44.787Z,66.27
2017-09-14T08:48:25.228Z,66.17
2017-09-14T08:49:05.674Z,66.08
2017-09-14T08:49:46.114Z,66.36
2017-09-14T08:50:26.561Z,66.46
2017-09-14T08:51:07.010Z,66.46
2017-09-14T08:51:47.458Z,66.46
2017-09-14T08:52:27.901Z,66.46
2017-09-14T08:53:08.465Z,66.56
2017-09-14T08:53:48.798Z,66.75
2017-09-14T08:54:29.240Z,66.75
2017-09-14T08:55:09.686Z,66.75
2017-09-14T08:55:50.136Z,66.85
2017-09-14T08:56:30.579Z,66.85
2017-09-14T08:57:11.027Z,66.85
2017-09-14T08:57:51.469Z,66.85
2017-09-14T08:58:31.919Z,66.85
2017-09-14T08:59:12.385Z,66.75
2017-09-14T08:59:52.815Z,66.75
2017-09-14T09:00:33.259Z,66.66
2017-09-14T09:01:13.705Z,66.66
2017-09-14T09:01:54.153Z,66.75
2017-09-14T09:02:34.599Z,66.66
2017-09-14T09:03:15.075Z,66.66
2017-09-14T09:03:55.511Z,66.85
2017-09-14T09:04:35.954Z,66.75
2017-09-14T09:05:16.405Z,66.75
2017-09-14T09:05:56.854Z,66.27
2017-09-14T09:06:37.299Z,66.17
2017-09-14T09:07:17.750Z,66.56
2017-09-14T09:07:58.211Z,66.72
2017-09-14T09:08:38.647Z,67.2
2017-09-14T09:09:19.102Z,67
2017-09-14T09:09:59.547Z,67
2017-09-14T09:10:39.997Z,66.97
2017-09-14T09:11:20.441Z,66.59
2017-09-14T09:12:00.885Z,66.78
2017-09-14T09:12:41.339Z,66.91
2017-09-14T09:13:21.793Z,67.3
2017-09-14T09:14:02.245Z,67.1
2017-09-14T09:14:42.698Z,66.72
2017-09-14T09:15:23.168Z,66.82
2017-09-14T09:16:03.595Z,66.43
2017-09-14T09:16:44.039Z,66.43
2017-09-14T09:17:24.490Z,66.24
2017-09-14T09:18:04.935Z,66.43
2017-09-14T09:18:45.389Z,66.14
2017-09-14T09:19:25.835Z,65.85
2017-09-14T09:20:06.289Z,65.47
2017-09-14T09:20:46.745Z,65.75
2017-09-14T09:21:27.185Z,65.95
2017-09-14T09:22:07.639Z,65.88
2017-09-14T09:22:48.085Z,65.88
2017-09-14T09:23:28.534Z,65.5
2017-09-14T09:24:08.980Z,65.56
2017-09-14T09:24:49.431Z,65.4
2017-09-14T09:25:29.885Z,65.69
2017-09-14T09:26:10.325Z,65.3
2017-09-14T09:26:50.774Z,65.2
2017-09-14T09:27:31.225Z,65.5
2017-09-14T09:28:11.672Z,65.3
2017-09-14T09:28:52.121Z,65.4
2017-09-14T09:29:32.573Z,65.2
2017-09-14T09:30:13.018Z,65.11
2017-09-14T09:30:53.467Z,65.3
2017-09-14T09:31:33.914Z,65.11
2017-09-14T09:32:14.368Z,65.11
2017-09-14T09:32:54.815Z,65.2
2017-09-14T09:33:35.270Z,65.3
2017-09-14T09:34:15.731Z,65.01
2017-09-14T09:34:56.193Z,65.2
2017-09-14T09:35:36.616Z,65.11
2017-09-14T09:36:17.062Z,65.2
2017-09-14T09:36:57.506Z,65.3
2017-09-14T09:37:37.950Z,65.05
2017-09-14T09:38:18.400Z,65.2
2017-09-14T09:38:58.850Z,65.01
2017-09-14T09:39:39.294Z,64.95
2017-09-14T09:40:19.740Z,65.24
2017-09-14T09:41:00.192Z,65.01
2017-09-14T09:41:40.639Z,65.59
2017-09-14T09:42:21.089Z,65.11
2017-09-14T09:43:01.541Z,65.63
2017-09-14T09:43:41.992Z,65.59
2017-09-14T09:44:22.441Z,65.43
2017-09-14T09:45:02.894Z,65.2
2017-09-14T09:45:43.342Z,65.43
2017-09-14T09:46:23.798Z,65.5
2017-09-14T09:47:04.244Z,65.43
2017-09-14T09:47:44.722Z,65.2
2017-09-14T09:48:25.151Z,65.34
2017-09-14T09:49:05.608Z,65.14
2017-09-14T09:49:46.044Z,65.53
2017-09-14T09:50:26.480Z,65.24
2017-09-14T09:51:06.936Z,65.53
2017-09-14T09:51:47.399Z,65.3